sensor_id;sensor_type;location;lat;lon;timestamp;pressure;altitude;pressure_sealevel;temperature;humidity
68634;BME280;55625;47.072;22.192;2023-02-15T00:01:43;101422.91;;;1.33;100.00
68634;BME280;55625;47.072;22.192;2023-02-15T00:04:12;101426.16;;;1.35;100.00
68634;BME280;55625;47.072;22.192;2023-02-15T00:06:39;101420.56;;;1.35;100.00
68634;BME280;55625;47.072;22.192;2023-02-15T00:09:05;101427.78;;;1.36;100.00
68634;BME280;55625;47.072;22.192;2023-02-15T00:11:31;101429.88;;;1.39;100.00
68634;BME280;55625;47.072;22.192;2023-02-15T00:14:15;101433.97;;;1.41;100.00
68634;BME280;55625;47.072;22.192;2023-02-15T00:16:43;101438.38;;;1.42;100.00
68634;BME280;55625;47.072;22.192;2023-02-15T00:19:10;101431.63;;;1.43;100.00
68634;BME280;55625;47.072;22.192;2023-02-15T00:21:38;101426.84;;;1.44;100.00
68634;BME280;55625;47.072;22.192;2023-02-15T00:24:07;101428.47;;;1.45;100.00
68634;BME280;55625;47.072;22.192;2023-02-15T00:26:34;101419.38;;;1.48;100.00
68634;BME280;55625;47.072;22.192;2023-02-15T00:29:02;101428.13;;;1.46;100.00
68634;BME280;55625;47.072;22.192;2023-02-15T00:31:29;101420.19;;;1.48;100.00
68634;BME280;55625;47.072;22.192;2023-02-15T00:34:04;101421.00;;;1.49;100.00
68634;BME280;55625;47.072;22.192;2023-02-15T00:36:30;101423.47;;;1.50;100.00
68634;BME280;55625;47.072;22.192;2023-02-15T00:38:56;101418.69;;;1.51;100.00
68634;BME280;55625;47.072;22.192;2023-02-15T00:41:22;101405.75;;;1.46;100.00
68634;BME280;55625;47.072;22.192;2023-02-15T00:43:48;101407.28;;;1.44;100.00
68634;BME280;55625;47.072;22.192;2023-02-15T00:46:13;101411.13;;;1.39;100.00
68634;BME280;55625;47.072;22.192;2023-02-15T00:48:39;101407.03;;;1.37;100.00
68634;BME280;55625;47.072;22.192;2023-02-15T00:51:05;101406.59;;;1.35;100.00
68634;BME280;55625;47.072;22.192;2023-02-15T00:53:31;101406.94;;;1.33;100.00
68634;BME280;55625;47.072;22.192;2023-02-15T00:55:58;101405.31;;;1.32;100.00
68634;BME280;55625;47.072;22.192;2023-02-15T00:58:24;101409.25;;;1.31;100.00
68634;BME280;55625;47.072;22.192;2023-02-15T01:00:51;101404.84;;;1.30;100.00
68634;BME280;55625;47.072;22.192;2023-02-15T01:03:19;101409.63;;;1.30;100.00
68634;BME280;55625;47.072;22.192;2023-02-15T01:05:48;101401.22;;;1.30;100.00
68634;BME280;55625;47.072;22.192;2023-02-15T01:08:15;101400.75;;;1.28;100.00
68634;BME280;55625;47.072;22.192;2023-02-15T01:10:41;101390.03;;;1.30;100.00
68634;BME280;55625;47.072;22.192;2023-02-15T01:13:07;101397.63;;;1.29;100.00
68634;BME280;55625;47.072;22.192;2023-02-15T01:15:35;101391.56;;;1.27;100.00
68634;BME280;55625;47.072;22.192;2023-02-15T01:18:01;101393.19;;;1.28;100.00
68634;BME280;55625;47.072;22.192;2023-02-15T01:20:28;101392.38;;;1.28;100.00
68634;BME280;55625;47.072;22.192;2023-02-15T01:22:57;101378.03;;;1.29;100.00
68634;BME280;55625;47.072;22.192;2023-02-15T01:25:23;101368.84;;;1.29;100.00
68634;BME280;55625;47.072;22.192;2023-02-15T01:27:49;101371.28;;;1.30;100.00
68634;BME280;55625;47.072;22.192;2023-02-15T01:30:16;101370.94;;;1.32;100.00
68634;BME280;55625;47.072;22.192;2023-02-15T01:32:42;101379.66;;;1.30;100.00
68634;BME280;55625;47.072;22.192;2023-02-15T01:35:09;101375.59;;;1.28;100.00
68634;BME280;55625;47.072;22.192;2023-02-15T01:37:36;101370.81;;;1.28;100.00
68634;BME280;55625;47.072;22.192;2023-02-15T01:40:05;101371.63;;;1.29;100.00
68634;BME280;55625;47.072;22.192;2023-02-15T01:42:32;101362.44;;;1.28;100.00
68634;BME280;55625;47.072;22.192;2023-02-15T01:45:02;101352.41;;;1.27;100.00
68634;BME280;55625;47.072;22.192;2023-02-15T01:48:06;101352.31;;;1.23;100.00
68634;BME280;55625;47.072;22.192;2023-02-15T01:50:44;101352.31;;;1.23;100.00
68634;BME280;55625;47.072;22.192;2023-02-15T01:56:04;101355.41;;;1.22;100.00
68634;BME280;55625;47.072;22.192;2023-02-15T01:58:32;101348.19;;;1.21;100.00
68634;BME280;55625;47.072;22.192;2023-02-15T02:01:00;101368.59;;;1.21;100.00
68634;BME280;55625;47.072;22.192;2023-02-15T02:06:17;101348.19;;;1.21;100.00
68634;BME280;55625;47.072;22.192;2023-02-15T02:08:43;101342.59;;;1.21;100.00
68634;BME280;55625;47.072;22.192;2023-02-15T02:11:15;101347.03;;;1.22;100.00
68634;BME280;55625;47.072;22.192;2023-02-15T02:13:43;101340.31;;;1.23;100.00
68634;BME280;55625;47.072;22.192;2023-02-15T02:16:27;101337.50;;;1.23;100.00
68634;BME280;55625;47.072;22.192;2023-02-15T02:22:37;101330.25;;;1.22;100.00
68634;BME280;55625;47.072;22.192;2023-02-15T02:35:07;101323.06;;;1.09;100.00
68634;BME280;55625;47.072;22.192;2023-02-15T02:38:07;101313.38;;;1.06;100.00
68634;BME280;55625;47.072;22.192;2023-02-15T02:41:10;101323.75;;;1.06;100.00
68634;BME280;55625;47.072;22.192;2023-02-15T02:44:16;101312.56;;;1.06;100.00
68634;BME280;55625;47.072;22.192;2023-02-15T02:47:08;101322.00;;;1.01;100.00
68634;BME280;55625;47.072;22.192;2023-02-15T02:49:40;101323.41;;;0.95;100.00
68634;BME280;55625;47.072;22.192;2023-02-15T02:52:41;101322.34;;;0.87;100.00
68634;BME280;55625;47.072;22.192;2023-02-15T03:00:30;101338.41;;;0.66;100.00
68634;BME280;55625;47.072;22.192;2023-02-15T03:03:11;101330.69;;;0.51;100.00
68634;BME280;55625;47.072;22.192;2023-02-15T03:05:44;101336.59;;;0.37;100.00
68634;BME280;55625;47.072;22.192;2023-02-15T03:08:14;101340.03;;;0.22;100.00
68634;BME280;55625;47.072;22.192;2023-02-15T03:10:49;101336.16;;;0.14;100.00
68634;BME280;55625;47.072;22.192;2023-02-15T03:13:18;101341.50;;;0.07;100.00
68634;BME280;55625;47.072;22.192;2023-02-15T03:15:44;101343.53;;;-0.02;100.00
68634;BME280;55625;47.072;22.192;2023-02-15T03:18:39;101351.50;;;-0.13;100.00
68634;BME280;55625;47.072;22.192;2023-02-15T03:21:08;101345.69;;;-0.20;100.00
68634;BME280;55625;47.072;22.192;2023-02-15T03:23:58;101355.06;;;-0.24;100.00
68634;BME280;55625;47.072;22.192;2023-02-15T03:26:25;101354.31;;;-0.34;100.00
68634;BME280;55625;47.072;22.192;2023-02-15T03:28:55;101360.09;;;-0.39;100.00
68634;BME280;55625;47.072;22.192;2023-02-15T03:31:26;101358.31;;;-0.43;100.00
68634;BME280;55625;47.072;22.192;2023-02-15T03:33:58;101369.00;;;-0.45;100.00
68634;BME280;55625;47.072;22.192;2023-02-15T03:37:09;101363.63;;;-0.50;100.00
68634;BME280;55625;47.072;22.192;2023-02-15T03:39:45;101366.81;;;-0.60;100.00
68634;BME280;55625;47.072;22.192;2023-02-15T03:42:28;101363.72;;;-0.68;100.00
68634;BME280;55625;47.072;22.192;2023-02-15T03:47:29;101372.81;;;-0.79;100.00
68634;BME280;55625;47.072;22.192;2023-02-15T03:50:14;101364.66;;;-0.84;100.00
68634;BME280;55625;47.072;22.192;2023-02-15T03:53:02;101363.84;;;-0.85;100.00
68634;BME280;55625;47.072;22.192;2023-02-15T03:55:30;101365.31;;;-0.87;100.00
68634;BME280;55625;47.072;22.192;2023-02-15T03:57:56;101363.88;;;-0.94;100.00
68634;BME280;55625;47.072;22.192;2023-02-15T04:00:49;101360.59;;;-0.96;100.00
68634;BME280;55625;47.072;22.192;2023-02-15T04:04:01;101364.53;;;-0.97;100.00
68634;BME280;55625;47.072;22.192;2023-02-15T04:06:28;101366.03;;;-0.99;100.00
68634;BME280;55625;47.072;22.192;2023-02-15T04:08:54;101368.00;;;-1.00;100.00
68634;BME280;55625;47.072;22.192;2023-02-15T04:11:38;101364.06;;;-0.99;100.00
68634;BME280;55625;47.072;22.192;2023-02-15T04:14:04;101375.88;;;-1.02;100.00
68634;BME280;55625;47.072;22.192;2023-02-15T04:16:50;101368.88;;;-1.08;100.00
68634;BME280;55625;47.072;22.192;2023-02-15T04:19:16;101373.94;;;-1.10;100.00
68634;BME280;55625;47.072;22.192;2023-02-15T04:22:00;101384.94;;;-1.13;100.00
68634;BME280;55625;47.072;22.192;2023-02-15T04:24:45;101380.22;;;-1.21;100.00
68634;BME280;55625;47.072;22.192;2023-02-15T04:27:30;101382.03;;;-1.26;100.00
68634;BME280;55625;47.072;22.192;2023-02-15T04:29:55;101386.47;;;-1.33;100.00
68634;BME280;55625;47.072;22.192;2023-02-15T04:32:21;101388.63;;;-1.39;100.00
68634;BME280;55625;47.072;22.192;2023-02-15T04:34:47;101386.50;;;-1.42;100.00
68634;BME280;55625;47.072;22.192;2023-02-15T04:37:13;101386.84;;;-1.43;100.00
68634;BME280;55625;47.072;22.192;2023-02-15T04:39:39;101386.38;;;-1.45;100.00
68634;BME280;55625;47.072;22.192;2023-02-15T04:42:05;101389.81;;;-1.48;100.00
68634;BME280;55625;47.072;22.192;2023-02-15T04:44:30;101390.97;;;-1.49;100.00
68634;BME280;55625;47.072;22.192;2023-02-15T04:46:56;101389.47;;;-1.56;100.00
68634;BME280;55625;47.072;22.192;2023-02-15T04:49:22;101405.69;;;-1.58;100.00
68634;BME280;55625;47.072;22.192;2023-02-15T04:51:48;101395.22;;;-1.61;100.00
68634;BME280;55625;47.072;22.192;2023-02-15T04:54:13;101401.44;;;-1.64;100.00
68634;BME280;55625;47.072;22.192;2023-02-15T04:56:39;101393.94;;;-1.72;100.00
68634;BME280;55625;47.072;22.192;2023-02-15T04:59:05;101408.69;;;-1.71;100.00
68634;BME280;55625;47.072;22.192;2023-02-15T05:01:31;101399.03;;;-1.74;100.00
68634;BME280;55625;47.072;22.192;2023-02-15T05:03:57;101410.16;;;-1.74;100.00
68634;BME280;55625;47.072;22.192;2023-02-15T05:06:23;101410.81;;;-1.77;100.00
68634;BME280;55625;47.072;22.192;2023-02-15T05:08:48;101405.59;;;-1.78;100.00
68634;BME280;55625;47.072;22.192;2023-02-15T05:11:14;101399.34;;;-1.84;100.00
68634;BME280;55625;47.072;22.192;2023-02-15T05:13:40;101403.78;;;-1.83;100.00
68634;BME280;55625;47.072;22.192;2023-02-15T05:16:06;101405.75;;;-1.83;100.00
68634;BME280;55625;47.072;22.192;2023-02-15T05:18:32;101403.28;;;-1.85;100.00
68634;BME280;55625;47.072;22.192;2023-02-15T05:20:58;101409.97;;;-1.86;100.00
68634;BME280;55625;47.072;22.192;2023-02-15T05:23:24;101411.13;;;-1.87;100.00
68634;BME280;55625;47.072;22.192;2023-02-15T05:25:51;101405.56;;;-1.96;100.00
68634;BME280;55625;47.072;22.192;2023-02-15T05:28:37;101409.34;;;-2.00;100.00
68634;BME280;55625;47.072;22.192;2023-02-15T05:31:15;101405.09;;;-2.06;100.00
68634;BME280;55625;47.072;22.192;2023-02-15T05:33:42;101412.47;;;-2.10;100.00
68634;BME280;55625;47.072;22.192;2023-02-15T05:36:09;101417.22;;;-2.11;100.00
68634;BME280;55625;47.072;22.192;2023-02-15T05:38:36;101424.72;;;-2.11;100.00
68634;BME280;55625;47.072;22.192;2023-02-15T05:41:06;101425.22;;;-2.09;100.00
68634;BME280;55625;47.072;22.192;2023-02-15T05:43:32;101429.16;;;-2.10;100.00
68634;BME280;55625;47.072;22.192;2023-02-15T05:45:59;101429.16;;;-2.10;100.00
68634;BME280;55625;47.072;22.192;2023-02-15T05:48:26;101434.72;;;-2.10;100.00
68634;BME280;55625;47.072;22.192;2023-02-15T05:51:05;101432.41;;;-2.08;100.00
68634;BME280;55625;47.072;22.192;2023-02-15T05:53:34;101441.91;;;-2.09;100.00
68634;BME280;55625;47.072;22.192;2023-02-15T05:56:00;101442.72;;;-2.09;100.00
68634;BME280;55625;47.072;22.192;2023-02-15T05:58:30;101433.25;;;-2.08;100.00
68634;BME280;55625;47.072;22.192;2023-02-15T06:00:57;101442.88;;;-2.05;100.00
68634;BME280;55625;47.072;22.192;2023-02-15T06:03:23;101446.16;;;-2.03;100.00
68634;BME280;55625;47.072;22.192;2023-02-15T06:05:52;101443.88;;;-2.01;100.00
68634;BME280;55625;47.072;22.192;2023-02-15T06:08:18;101444.53;;;-1.96;100.00
68634;BME280;55625;47.072;22.192;2023-02-15T06:10:47;101444.03;;;-1.89;100.00
68634;BME280;55625;47.072;22.192;2023-02-15T06:13:13;101439.31;;;-1.80;100.00
68634;BME280;55625;47.072;22.192;2023-02-15T06:15:39;101438.97;;;-1.70;100.00
68634;BME280;55625;47.072;22.192;2023-02-15T06:18:05;101444.50;;;-1.61;100.00
68634;BME280;55625;47.072;22.192;2023-02-15T06:20:31;101444.50;;;-1.52;100.00
68634;BME280;55625;47.072;22.192;2023-02-15T06:22:56;101444.50;;;-1.44;100.00
68634;BME280;55625;47.072;22.192;2023-02-15T06:25:22;101446.59;;;-1.32;100.00
68634;BME280;55625;47.072;22.192;2023-02-15T06:27:50;101447.91;;;-1.21;100.00
68634;BME280;55625;47.072;22.192;2023-02-15T06:30:16;101446.38;;;-1.10;100.00
68634;BME280;55625;47.072;22.192;2023-02-15T06:32:42;101447.63;;;-0.99;100.00
68634;BME280;55625;47.072;22.192;2023-02-15T06:35:08;101449.06;;;-0.84;100.00
68634;BME280;55625;47.072;22.192;2023-02-15T06:37:34;101456.25;;;-0.74;100.00
68634;BME280;55625;47.072;22.192;2023-02-15T06:40:00;101454.06;;;-0.60;100.00
68634;BME280;55625;47.072;22.192;2023-02-15T06:42:26;101451.84;;;-0.46;100.00
68634;BME280;55625;47.072;22.192;2023-02-15T06:44:51;101452.91;;;-0.29;100.00
68634;BME280;55625;47.072;22.192;2023-02-15T06:47:17;101461.81;;;-0.15;100.00
68634;BME280;55625;47.072;22.192;2023-02-15T06:49:43;101466.47;;;0.02;100.00
68634;BME280;55625;47.072;22.192;2023-02-15T06:52:09;101462.25;;;0.16;100.00
68634;BME280;55625;47.072;22.192;2023-02-15T06:54:35;101469.53;;;0.29;100.00
68634;BME280;55625;47.072;22.192;2023-02-15T06:57:00;101458.91;;;0.44;100.00
68634;BME280;55625;47.072;22.192;2023-02-15T06:59:26;101458.59;;;0.57;100.00
68634;BME280;55625;47.072;22.192;2023-02-15T07:01:52;101450.28;;;0.70;100.00
68634;BME280;55625;47.072;22.192;2023-02-15T07:04:18;101466.47;;;0.76;99.92
68634;BME280;55625;47.072;22.192;2023-02-15T07:06:44;101462.75;;;0.84;98.44
68634;BME280;55625;47.072;22.192;2023-02-15T07:09:10;101460.84;;;0.97;98.98
68634;BME280;55625;47.072;22.192;2023-02-15T07:11:35;101451.53;;;1.05;97.98
68634;BME280;55625;47.072;22.192;2023-02-15T07:14:20;101467.03;;;1.15;98.53
68634;BME280;55625;47.072;22.192;2023-02-15T07:16:46;101461.66;;;1.22;97.51
68634;BME280;55625;47.072;22.192;2023-02-15T07:19:11;101470.09;;;1.34;96.46
68634;BME280;55625;47.072;22.192;2023-02-15T07:21:37;101465.19;;;1.31;96.40
68634;BME280;55625;47.072;22.192;2023-02-15T07:24:03;101466.47;;;1.34;97.72
68634;BME280;55625;47.072;22.192;2023-02-15T07:26:32;101462.03;;;1.45;96.94
68634;BME280;55625;47.072;22.192;2023-02-15T07:28:58;101468.69;;;1.52;96.54
68634;BME280;55625;47.072;22.192;2023-02-15T07:31:23;101471.84;;;1.63;97.07
68634;BME280;55625;47.072;22.192;2023-02-15T07:33:49;101473.00;;;1.74;96.77
68634;BME280;55625;47.072;22.192;2023-02-15T07:36:15;101473.47;;;1.89;96.08
68634;BME280;55625;47.072;22.192;2023-02-15T07:38:41;101477.63;;;2.07;95.63
68634;BME280;55625;47.072;22.192;2023-02-15T07:41:14;101479.91;;;2.29;94.89
68634;BME280;55625;47.072;22.192;2023-02-15T07:43:43;101470.16;;;2.51;93.45
68634;BME280;55625;47.072;22.192;2023-02-15T07:46:13;101465.00;;;2.81;93.37
68634;BME280;55625;47.072;22.192;2023-02-15T07:48:40;101462.41;;;3.04;92.15
68634;BME280;55625;47.072;22.192;2023-02-15T07:51:09;101458.38;;;3.33;90.72
68634;BME280;55625;47.072;22.192;2023-02-15T07:53:36;101464.53;;;3.54;90.35
68634;BME280;55625;47.072;22.192;2023-02-15T07:56:05;101458.63;;;3.75;89.21
68634;BME280;55625;47.072;22.192;2023-02-15T07:58:33;101454.06;;;3.86;87.00
68634;BME280;55625;47.072;22.192;2023-02-15T08:01:31;101443.66;;;3.87;87.11
68634;BME280;55625;47.072;22.192;2023-02-15T08:03:57;101440.88;;;4.06;86.94
68634;BME280;55625;47.072;22.192;2023-02-15T08:06:26;101443.63;;;4.22;86.43
68634;BME280;55625;47.072;22.192;2023-02-15T08:08:52;101445.50;;;4.33;85.77
68634;BME280;55625;47.072;22.192;2023-02-15T08:11:22;101445.72;;;4.44;85.08
68634;BME280;55625;47.072;22.192;2023-02-15T08:14:09;101444.25;;;4.50;84.13
68634;BME280;55625;47.072;22.192;2023-02-15T08:19:20;101446.72;;;4.94;83.11
68634;BME280;55625;47.072;22.192;2023-02-15T08:21:52;101445.03;;;5.12;83.03
68634;BME280;55625;47.072;22.192;2023-02-15T08:24:25;101444.19;;;5.31;82.43
68634;BME280;55625;47.072;22.192;2023-02-15T08:26:52;101444.47;;;5.49;82.07
68634;BME280;55625;47.072;22.192;2023-02-15T08:29:28;101441.25;;;5.73;80.21
68634;BME280;55625;47.072;22.192;2023-02-15T08:32:00;101449.56;;;5.89;79.90
68634;BME280;55625;47.072;22.192;2023-02-15T08:34:30;101443.81;;;6.08;79.60
68634;BME280;55625;47.072;22.192;2023-02-15T08:36:57;101434.34;;;6.20;79.39
68634;BME280;55625;47.072;22.192;2023-02-15T08:39:23;101436.06;;;6.28;77.73
68634;BME280;55625;47.072;22.192;2023-02-15T08:41:49;101427.69;;;6.35;77.13
68634;BME280;55625;47.072;22.192;2023-02-15T08:44:18;101421.81;;;6.47;77.53
68634;BME280;55625;47.072;22.192;2023-02-15T08:46:46;101431.59;;;6.57;76.72
68634;BME280;55625;47.072;22.192;2023-02-15T08:49:19;101429.31;;;6.70;76.29
68634;BME280;55625;47.072;22.192;2023-02-15T08:51:46;101429.56;;;6.91;76.01
68634;BME280;55625;47.072;22.192;2023-02-15T08:54:14;101430.53;;;7.06;74.91
68634;BME280;55625;47.072;22.192;2023-02-15T08:56:42;101430.59;;;7.13;74.37
68634;BME280;55625;47.072;22.192;2023-02-15T08:59:16;101435.88;;;7.18;72.01
68634;BME280;55625;47.072;22.192;2023-02-15T09:01:43;101436.31;;;7.20;72.29
68634;BME280;55625;47.072;22.192;2023-02-15T09:04:09;101439.72;;;7.40;72.45
68634;BME280;55625;47.072;22.192;2023-02-15T09:06:37;101427.69;;;7.50;70.41
68634;BME280;55625;47.072;22.192;2023-02-15T09:09:03;101423.09;;;7.79;71.44
68634;BME280;55625;47.072;22.192;2023-02-15T09:11:34;101428.06;;;8.00;70.45
68634;BME280;55625;47.072;22.192;2023-02-15T09:14:04;101435.34;;;7.97;69.82
68634;BME280;55625;47.072;22.192;2023-02-15T09:16:33;101423.34;;;8.25;69.38
68634;BME280;55625;47.072;22.192;2023-02-15T09:18:59;101430.75;;;8.40;68.59
68634;BME280;55625;47.072;22.192;2023-02-15T09:21:31;101431.19;;;8.50;68.26
68634;BME280;55625;47.072;22.192;2023-02-15T09:24:00;101435.31;;;8.66;67.11
68634;BME280;55625;47.072;22.192;2023-02-15T09:26:29;101424.41;;;8.68;67.56
68634;BME280;55625;47.072;22.192;2023-02-15T09:28:58;101429.69;;;8.84;67.58
68634;BME280;55625;47.072;22.192;2023-02-15T09:31:29;101422.06;;;9.02;68.01
68634;BME280;55625;47.072;22.192;2023-02-15T09:33:56;101431.38;;;9.10;67.18
68634;BME280;55625;47.072;22.192;2023-02-15T09:36:27;101427.72;;;8.92;67.54
68634;BME280;55625;47.072;22.192;2023-02-15T09:39:20;101424.47;;;8.93;67.24
68634;BME280;55625;47.072;22.192;2023-02-15T09:42:28;101420.03;;;9.07;67.56
68634;BME280;55625;47.072;22.192;2023-02-15T09:45:23;101423.69;;;9.11;66.32
68634;BME280;55625;47.072;22.192;2023-02-15T09:48:19;101420.84;;;9.03;67.71
68634;BME280;55625;47.072;22.192;2023-02-15T09:56:55;101417.66;;;9.44;64.83
68634;BME280;55625;47.072;22.192;2023-02-15T10:00:09;101405.50;;;9.47;63.18
68634;BME280;55625;47.072;22.192;2023-02-15T10:06:31;101400.22;;;9.85;63.65
68634;BME280;55625;47.072;22.192;2023-02-15T10:15:07;101388.44;;;9.97;63.12
68634;BME280;55625;47.072;22.192;2023-02-15T10:18:51;101388.50;;;9.54;64.23
68634;BME280;55625;47.072;22.192;2023-02-15T10:23:57;101381.91;;;10.07;62.17
68634;BME280;55625;47.072;22.192;2023-02-15T10:26:42;101384.72;;;10.32;61.61
68634;BME280;55625;47.072;22.192;2023-02-15T10:57:33;101349.84;;;10.32;57.45
68634;BME280;55625;47.072;22.192;2023-02-15T11:03:31;101344.03;;;10.60;56.80
68634;BME280;55625;47.072;22.192;2023-02-15T11:06:11;101336.69;;;10.66;56.43
68634;BME280;55625;47.072;22.192;2023-02-15T11:08:46;101339.09;;;10.75;55.58
68634;BME280;55625;47.072;22.192;2023-02-15T11:11:34;101329.78;;;10.67;54.81
68634;BME280;55625;47.072;22.192;2023-02-15T11:14:33;101324.47;;;10.76;54.78
68634;BME280;55625;47.072;22.192;2023-02-15T11:17:35;101332.50;;;10.88;53.90
68634;BME280;55625;47.072;22.192;2023-02-15T11:20:23;101335.72;;;10.91;54.52
68634;BME280;55625;47.072;22.192;2023-02-15T11:22:51;101315.94;;;10.80;53.88
68634;BME280;55625;47.072;22.192;2023-02-15T11:25:47;101318.63;;;10.98;54.26
68634;BME280;55625;47.072;22.192;2023-02-15T11:28:51;101315.81;;;10.94;55.08
68634;BME280;55625;47.072;22.192;2023-02-15T11:31:23;101318.59;;;11.05;55.51
68634;BME280;55625;47.072;22.192;2023-02-15T11:33:59;101321.88;;;10.96;53.45
68634;BME280;55625;47.072;22.192;2023-02-15T11:36:38;101319.63;;;10.73;54.07
68634;BME280;55625;47.072;22.192;2023-02-15T11:39:14;101313.13;;;10.76;53.72
68634;BME280;55625;47.072;22.192;2023-02-15T11:41:46;101324.66;;;10.44;54.32
68634;BME280;55625;47.072;22.192;2023-02-15T11:44:30;101309.06;;;10.70;55.72
68634;BME280;55625;47.072;22.192;2023-02-15T11:46:58;101311.09;;;10.77;55.56
68634;BME280;55625;47.072;22.192;2023-02-15T11:49:33;101306.13;;;10.88;55.88
68634;BME280;55625;47.072;22.192;2023-02-15T11:52:05;101310.31;;;10.69;54.98
68634;BME280;55625;47.072;22.192;2023-02-15T11:54:36;101308.81;;;10.50;55.26
68634;BME280;55625;47.072;22.192;2023-02-15T12:00:02;101308.28;;;10.70;56.15
68634;BME280;55625;47.072;22.192;2023-02-15T12:02:32;101307.44;;;10.76;56.19
68634;BME280;55625;47.072;22.192;2023-02-15T12:05:05;101306.72;;;10.62;56.16
68634;BME280;55625;47.072;22.192;2023-02-15T12:08:02;101303.06;;;10.61;55.79
68634;BME280;55625;47.072;22.192;2023-02-15T12:10:38;101303.84;;;10.65;56.74
68634;BME280;55625;47.072;22.192;2023-02-15T12:15:45;101294.63;;;10.50;57.05
68634;BME280;55625;47.072;22.192;2023-02-15T12:18:42;101289.69;;;10.58;56.44
68634;BME280;55625;47.072;22.192;2023-02-15T12:21:23;101295.72;;;10.67;56.90
68634;BME280;55625;47.072;22.192;2023-02-15T12:26:44;101283.06;;;10.79;57.40
68634;BME280;55625;47.072;22.192;2023-02-15T12:29:24;101273.84;;;10.64;57.13
68634;BME280;55625;47.072;22.192;2023-02-15T12:31:52;101280.69;;;10.70;57.75
68634;BME280;55625;47.072;22.192;2023-02-15T12:36:54;101284.97;;;10.34;57.07
68634;BME280;55625;47.072;22.192;2023-02-15T12:39:31;101274.47;;;10.31;59.10
68634;BME280;55625;47.072;22.192;2023-02-15T12:42:14;101265.47;;;10.43;58.57
68634;BME280;55625;47.072;22.192;2023-02-15T12:44:53;101270.81;;;10.30;58.68
68634;BME280;55625;47.072;22.192;2023-02-15T12:47:21;101259.81;;;10.43;58.38
68634;BME280;55625;47.072;22.192;2023-02-15T12:50:21;101266.81;;;10.24;57.17
68634;BME280;55625;47.072;22.192;2023-02-15T12:52:50;101254.94;;;10.40;58.77
68634;BME280;55625;47.072;22.192;2023-02-15T12:55:27;101261.41;;;10.40;57.68
68634;BME280;55625;47.072;22.192;2023-02-15T12:58:07;101255.91;;;10.12;58.50
68634;BME280;55625;47.072;22.192;2023-02-15T13:00:33;101256.78;;;9.94;59.42
68634;BME280;55625;47.072;22.192;2023-02-15T13:03:00;101249.50;;;9.90;59.34
68634;BME280;55625;47.072;22.192;2023-02-15T13:05:42;101254.75;;;9.95;59.85
68634;BME280;55625;47.072;22.192;2023-02-15T13:08:15;101251.44;;;10.07;59.74
68634;BME280;55625;47.072;22.192;2023-02-15T13:10:57;101255.16;;;9.93;60.44
68634;BME280;55625;47.072;22.192;2023-02-15T13:13:30;101245.50;;;9.73;60.86
68634;BME280;55625;47.072;22.192;2023-02-15T13:16:04;101254.44;;;9.72;59.63
68634;BME280;55625;47.072;22.192;2023-02-15T13:18:44;101242.34;;;9.46;59.63
68634;BME280;55625;47.072;22.192;2023-02-15T13:21:11;101245.19;;;9.43;59.89
68634;BME280;55625;47.072;22.192;2023-02-15T13:23:41;101234.72;;;9.29;61.19
68634;BME280;55625;47.072;22.192;2023-02-15T13:26:16;101243.63;;;9.31;62.65
68634;BME280;55625;47.072;22.192;2023-02-15T13:28:55;101235.91;;;9.35;61.34
68634;BME280;55625;47.072;22.192;2023-02-15T13:31:26;101243.19;;;9.50;62.09
68634;BME280;55625;47.072;22.192;2023-02-15T13:34:20;101246.00;;;9.50;62.41
68634;BME280;55625;47.072;22.192;2023-02-15T13:37:16;101237.50;;;9.43;61.89
68634;BME280;55625;47.072;22.192;2023-02-15T13:46:14;101238.78;;;9.21;63.15
68634;BME280;55625;47.072;22.192;2023-02-15T14:00:27;101240.81;;;8.81;63.60
68634;BME280;55625;47.072;22.192;2023-02-15T14:06:13;101235.94;;;8.35;65.47
68634;BME280;55625;47.072;22.192;2023-02-15T14:09:06;101239.47;;;8.04;63.52
68634;BME280;55625;47.072;22.192;2023-02-15T14:15:38;101240.63;;;7.89;64.04
68634;BME280;55625;47.072;22.192;2023-02-15T14:31:58;101246.91;;;7.50;64.07
68634;BME280;55625;47.072;22.192;2023-02-15T14:34:57;101240.44;;;7.46;64.03
68634;BME280;55625;47.072;22.192;2023-02-15T15:07:22;101226.28;;;6.77;65.90
68634;BME280;55625;47.072;22.192;2023-02-15T15:12:50;101231.78;;;6.63;66.13
68634;BME280;55625;47.072;22.192;2023-02-15T15:18:07;101230.88;;;6.51;66.83
68634;BME280;55625;47.072;22.192;2023-02-15T15:20:49;101231.66;;;6.48;67.25
68634;BME280;55625;47.072;22.192;2023-02-15T15:25:56;101224.25;;;6.33;68.03
68634;BME280;55625;47.072;22.192;2023-02-15T15:49:31;101241.09;;;5.59;72.48
68634;BME280;55625;47.072;22.192;2023-02-15T15:52:07;101232.84;;;5.43;72.76
68634;BME280;55625;47.072;22.192;2023-02-15T15:54:35;101231.47;;;5.30;73.80
68634;BME280;55625;47.072;22.192;2023-02-15T15:57:04;101229.28;;;5.20;73.79
68634;BME280;55625;47.072;22.192;2023-02-15T15:59:34;101232.75;;;5.10;74.16
68634;BME280;55625;47.072;22.192;2023-02-15T16:02:15;101231.78;;;4.98;75.04
68634;BME280;55625;47.072;22.192;2023-02-15T16:04:44;101231.19;;;4.86;75.02
68634;BME280;55625;47.072;22.192;2023-02-15T16:07:28;101238.28;;;4.76;75.51
68634;BME280;55625;47.072;22.192;2023-02-15T16:10:05;101237.34;;;4.68;76.01
68634;BME280;55625;47.072;22.192;2023-02-15T16:12:35;101242.03;;;4.61;76.46
68634;BME280;55625;47.072;22.192;2023-02-15T16:15:18;101246.28;;;4.51;76.43
68634;BME280;55625;47.072;22.192;2023-02-15T16:17:49;101248.72;;;4.30;77.38
68634;BME280;55625;47.072;22.192;2023-02-15T16:20:34;101251.19;;;4.12;77.81